sensor_id;sensor_type;location;lat;lon;timestamp;P1;durP1;ratioP1;P2;durP2;ratioP2
30818;SDS011;17546;42.674;23.284;2023-04-06T00:01:12;15.25;;;8.07;;
30818;SDS011;17546;42.674;23.284;2023-04-06T00:03:37;16.08;;;9.07;;
30818;SDS011;17546;42.674;23.284;2023-04-06T00:06:03;15.90;;;9.30;;
30818;SDS011;17546;42.674;23.284;2023-04-06T00:08:29;13.55;;;8.52;;
30818;SDS011;17546;42.674;23.284;2023-04-06T00:10:54;16.02;;;8.50;;
30818;SDS011;17546;42.674;23.284;2023-04-06T00:13:20;18.38;;;9.30;;
30818;SDS011;17546;42.674;23.284;2023-04-06T00:15:46;14.27;;;8.55;;
30818;SDS011;17546;42.674;23.284;2023-04-06T00:18:11;17.55;;;9.63;;
30818;SDS011;17546;42.674;23.284;2023-04-06T00:20:37;14.77;;;9.25;;
30818;SDS011;17546;42.674;23.284;2023-04-06T00:23:02;14.82;;;8.40;;
30818;SDS011;17546;42.674;23.284;2023-04-06T00:25:28;17.42;;;8.80;;
30818;SDS011;17546;42.674;23.284;2023-04-06T00:27:53;12.23;;;7.80;;
30818;SDS011;17546;42.674;23.284;2023-04-06T00:30:19;16.42;;;8.65;;
30818;SDS011;17546;42.674;23.284;2023-04-06T00:32:45;13.45;;;8.13;;
30818;SDS011;17546;42.674;23.284;2023-04-06T00:35:10;14.80;;;8.88;;
30818;SDS011;17546;42.674;23.284;2023-04-06T00:37:36;14.48;;;8.32;;
30818;SDS011;17546;42.674;23.284;2023-04-06T00:40:01;13.98;;;8.60;;
30818;SDS011;17546;42.674;23.284;2023-04-06T00:42:47;13.55;;;8.23;;
30818;SDS011;17546;42.674;23.284;2023-04-06T00:45:12;17.05;;;8.20;;
30818;SDS011;17546;42.674;23.284;2023-04-06T00:47:37;16.38;;;8.30;;
30818;SDS011;17546;42.674;23.284;2023-04-06T00:50:03;13.48;;;8.52;;
30818;SDS011;17546;42.674;23.284;2023-04-06T00:52:29;16.95;;;9.30;;
30818;SDS011;17546;42.674;23.284;2023-04-06T00:54:55;16.33;;;8.93;;
30818;SDS011;17546;42.674;23.284;2023-04-06T00:57:20;14.07;;;8.10;;
30818;SDS011;17546;42.674;23.284;2023-04-06T00:59:46;14.95;;;8.80;;
30818;SDS011;17546;42.674;23.284;2023-04-06T01:02:11;13.55;;;7.65;;
30818;SDS011;17546;42.674;23.284;2023-04-06T01:04:37;14.88;;;8.15;;
30818;SDS011;17546;42.674;23.284;2023-04-06T01:07:03;13.25;;;8.02;;
30818;SDS011;17546;42.674;23.284;2023-04-06T01:09:28;11.02;;;6.90;;
30818;SDS011;17546;42.674;23.284;2023-04-06T01:11:57;17.48;;;7.78;;
30818;SDS011;17546;42.674;23.284;2023-04-06T01:14:23;11.93;;;7.40;;
30818;SDS011;17546;42.674;23.284;2023-04-06T01:16:49;14.63;;;8.55;;
30818;SDS011;17546;42.674;23.284;2023-04-06T01:19:15;13.23;;;7.88;;
30818;SDS011;17546;42.674;23.284;2023-04-06T01:21:40;13.50;;;7.93;;
30818;SDS011;17546;42.674;23.284;2023-04-06T01:24:07;13.70;;;8.15;;
30818;SDS011;17546;42.674;23.284;2023-04-06T01:26:33;12.73;;;7.95;;
30818;SDS011;17546;42.674;23.284;2023-04-06T01:28:59;13.27;;;8.02;;
30818;SDS011;17546;42.674;23.284;2023-04-06T01:31:25;15.48;;;7.88;;
30818;SDS011;17546;42.674;23.284;2023-04-06T01:33:51;13.98;;;7.43;;
30818;SDS011;17546;42.674;23.284;2023-04-06T01:36:17;14.65;;;8.68;;
30818;SDS011;17546;42.674;23.284;2023-04-06T01:38:43;16.67;;;9.70;;
30818;SDS011;17546;42.674;23.284;2023-04-06T01:41:08;13.23;;;7.82;;
30818;SDS011;17546;42.674;23.284;2023-04-06T01:43:34;13.77;;;8.63;;
30818;SDS011;17546;42.674;23.284;2023-04-06T01:46:00;13.48;;;8.07;;
30818;SDS011;17546;42.674;23.284;2023-04-06T01:48:26;15.63;;;7.97;;
30818;SDS011;17546;42.674;23.284;2023-04-06T01:50:52;14.18;;;7.75;;
30818;SDS011;17546;42.674;23.284;2023-04-06T01:53:17;13.68;;;8.43;;
30818;SDS011;17546;42.674;23.284;2023-04-06T01:55:43;15.13;;;7.88;;
30818;SDS011;17546;42.674;23.284;2023-04-06T01:58:08;12.63;;;7.57;;
30818;SDS011;17546;42.674;23.284;2023-04-06T02:00:34;16.02;;;7.97;;
30818;SDS011;17546;42.674;23.284;2023-04-06T02:02:59;13.88;;;8.20;;
30818;SDS011;17546;42.674;23.284;2023-04-06T02:05:25;15.75;;;8.40;;
30818;SDS011;17546;42.674;23.284;2023-04-06T02:07:51;15.65;;;8.05;;
30818;SDS011;17546;42.674;23.284;2023-04-06T02:10:17;10.50;;;6.38;;
30818;SDS011;17546;42.674;23.284;2023-04-06T02:12:42;12.48;;;7.25;;
30818;SDS011;17546;42.674;23.284;2023-04-06T02:15:08;12.43;;;7.28;;
30818;SDS011;17546;42.674;23.284;2023-04-06T02:17:34;13.95;;;7.40;;
30818;SDS011;17546;42.674;23.284;2023-04-06T02:20:00;14.30;;;7.68;;
30818;SDS011;17546;42.674;23.284;2023-04-06T02:22:25;14.48;;;8.00;;
30818;SDS011;17546;42.674;23.284;2023-04-06T02:24:51;13.18;;;7.82;;
30818;SDS011;17546;42.674;23.284;2023-04-06T02:27:16;14.88;;;7.88;;
30818;SDS011;17546;42.674;23.284;2023-04-06T02:29:41;17.65;;;7.85;;
30818;SDS011;17546;42.674;23.284;2023-04-06T02:32:07;14.20;;;8.40;;
30818;SDS011;17546;42.674;23.284;2023-04-06T02:34:32;11.45;;;7.43;;
30818;SDS011;17546;42.674;23.284;2023-04-06T02:36:58;15.80;;;7.90;;
30818;SDS011;17546;42.674;23.284;2023-04-06T02:39:23;14.05;;;8.02;;
30818;SDS011;17546;42.674;23.284;2023-04-06T02:41:49;11.82;;;7.28;;
30818;SDS011;17546;42.674;23.284;2023-04-06T02:44:14;13.32;;;7.88;;
30818;SDS011;17546;42.674;23.284;2023-04-06T02:46:40;15.27;;;7.18;;
30818;SDS011;17546;42.674;23.284;2023-04-06T02:49:05;12.40;;;7.45;;
30818;SDS011;17546;42.674;23.284;2023-04-06T02:51:31;11.82;;;6.90;;
30818;SDS011;17546;42.674;23.284;2023-04-06T02:53:57;17.20;;;7.78;;
30818;SDS011;17546;42.674;23.284;2023-04-06T02:56:22;14.55;;;7.80;;
30818;SDS011;17546;42.674;23.284;2023-04-06T02:58:48;12.98;;;7.25;;
30818;SDS011;17546;42.674;23.284;2023-04-06T03:01:13;11.40;;;7.32;;
30818;SDS011;17546;42.674;23.284;2023-04-06T03:03:39;12.38;;;6.97;;
30818;SDS011;17546;42.674;23.284;2023-04-06T03:06:05;12.70;;;7.60;;
30818;SDS011;17546;42.674;23.284;2023-04-06T03:08:31;13.73;;;7.72;;
30818;SDS011;17546;42.674;23.284;2023-04-06T03:10:56;16.60;;;8.10;;
30818;SDS011;17546;42.674;23.284;2023-04-06T03:13:22;13.30;;;7.50;;
30818;SDS011;17546;42.674;23.284;2023-04-06T03:15:47;13.68;;;7.78;;
30818;SDS011;17546;42.674;23.284;2023-04-06T03:18:13;13.73;;;8.15;;
30818;SDS011;17546;42.674;23.284;2023-04-06T03:20:38;13.57;;;7.82;;
30818;SDS011;17546;42.674;23.284;2023-04-06T03:23:04;17.80;;;9.13;;
30818;SDS011;17546;42.674;23.284;2023-04-06T03:25:29;14.38;;;8.18;;
30818;SDS011;17546;42.674;23.284;2023-04-06T03:27:55;14.77;;;8.00;;
30818;SDS011;17546;42.674;23.284;2023-04-06T03:30:21;16.42;;;8.77;;
30818;SDS011;17546;42.674;23.284;2023-04-06T03:32:46;13.20;;;8.50;;
30818;SDS011;17546;42.674;23.284;2023-04-06T03:35:12;13.75;;;8.48;;
30818;SDS011;17546;42.674;23.284;2023-04-06T03:37:37;14.48;;;7.93;;
30818;SDS011;17546;42.674;23.284;2023-04-06T03:40:03;13.50;;;7.95;;
30818;SDS011;17546;42.674;23.284;2023-04-06T03:42:30;13.18;;;6.60;;
30818;SDS011;17546;42.674;23.284;2023-04-06T03:44:55;17.83;;;7.25;;
30818;SDS011;17546;42.674;23.284;2023-04-06T03:47:21;11.85;;;7.15;;
30818;SDS011;17546;42.674;23.284;2023-04-06T03:49:46;14.82;;;7.30;;
30818;SDS011;17546;42.674;23.284;2023-04-06T03:52:12;13.65;;;8.20;;
30818;SDS011;17546;42.674;23.284;2023-04-06T03:54:37;16.63;;;8.23;;
30818;SDS011;17546;42.674;23.284;2023-04-06T03:57:03;13.48;;;8.43;;
30818;SDS011;17546;42.674;23.284;2023-04-06T03:59:29;13.70;;;8.30;;
30818;SDS011;17546;42.674;23.284;2023-04-06T04:01:55;14.43;;;8.50;;
30818;SDS011;17546;42.674;23.284;2023-04-06T04:04:20;14.52;;;7.68;;
30818;SDS011;17546;42.674;23.284;2023-04-06T04:06:46;13.55;;;7.43;;
30818;SDS011;17546;42.674;23.284;2023-04-06T04:09:11;14.70;;;7.55;;
30818;SDS011;17546;42.674;23.284;2023-04-06T04:11:37;15.68;;;7.53;;
30818;SDS011;17546;42.674;23.284;2023-04-06T04:14:02;16.77;;;9.50;;
30818;SDS011;17546;42.674;23.284;2023-04-06T04:16:29;16.13;;;9.13;;
30818;SDS011;17546;42.674;23.284;2023-04-06T04:18:54;12.95;;;8.25;;
30818;SDS011;17546;42.674;23.284;2023-04-06T04:21:20;15.40;;;7.65;;
30818;SDS011;17546;42.674;23.284;2023-04-06T04:23:45;18.67;;;8.23;;
30818;SDS011;17546;42.674;23.284;2023-04-06T04:26:11;11.13;;;7.32;;
30818;SDS011;17546;42.674;23.284;2023-04-06T04:28:36;13.43;;;7.90;;
30818;SDS011;17546;42.674;23.284;2023-04-06T04:31:02;14.18;;;7.65;;
30818;SDS011;17546;42.674;23.284;2023-04-06T04:33:28;14.23;;;8.13;;
30818;SDS011;17546;42.674;23.284;2023-04-06T04:35:53;14.43;;;8.48;;
30818;SDS011;17546;42.674;23.284;2023-04-06T04:38:18;12.90;;;8.02;;
30818;SDS011;17546;42.674;23.284;2023-04-06T04:40:44;13.77;;;8.35;;
30818;SDS011;17546;42.674;23.284;2023-04-06T04:43:10;17.25;;;9.18;;
30818;SDS011;17546;42.674;23.284;2023-04-06T04:45:35;15.77;;;8.27;;
30818;SDS011;17546;42.674;23.284;2023-04-06T04:48:01;13.25;;;7.75;;
30818;SDS011;17546;42.674;23.284;2023-04-06T04:50:26;15.52;;;8.65;;
30818;SDS011;17546;42.674;23.284;2023-04-06T04:52:52;14.10;;;7.97;;
30818;SDS011;17546;42.674;23.284;2023-04-06T04:55:17;16.55;;;8.55;;
30818;SDS011;17546;42.674;23.284;2023-04-06T04:57:43;16.45;;;8.52;;
30818;SDS011;17546;42.674;23.284;2023-04-06T05:00:09;22.25;;;8.68;;
30818;SDS011;17546;42.674;23.284;2023-04-06T05:02:35;16.85;;;8.90;;
30818;SDS011;17546;42.674;23.284;2023-04-06T05:05:00;17.23;;;9.23;;
30818;SDS011;17546;42.674;23.284;2023-04-06T05:07:26;19.13;;;9.13;;
30818;SDS011;17546;42.674;23.284;2023-04-06T05:09:51;13.70;;;8.82;;
30818;SDS011;17546;42.674;23.284;2023-04-06T05:12:18;16.63;;;9.40;;
30818;SDS011;17546;42.674;23.284;2023-04-06T05:14:45;15.68;;;8.65;;
30818;SDS011;17546;42.674;23.284;2023-04-06T05:17:10;19.90;;;9.65;;
30818;SDS011;17546;42.674;23.284;2023-04-06T05:19:36;17.42;;;9.23;;
30818;SDS011;17546;42.674;23.284;2023-04-06T05:22:01;17.23;;;9.32;;
30818;SDS011;17546;42.674;23.284;2023-04-06T05:24:27;19.02;;;9.88;;
30818;SDS011;17546;42.674;23.284;2023-04-06T05:26:52;20.55;;;9.90;;
30818;SDS011;17546;42.674;23.284;2023-04-06T05:29:18;17.77;;;9.70;;
30818;SDS011;17546;42.674;23.284;2023-04-06T05:31:43;14.57;;;8.10;;
30818;SDS011;17546;42.674;23.284;2023-04-06T05:34:09;21.50;;;9.77;;
30818;SDS011;17546;42.674;23.284;2023-04-06T05:36:35;21.10;;;11.15;;
30818;SDS011;17546;42.674;23.284;2023-04-06T05:39:02;18.75;;;10.85;;
30818;SDS011;17546;42.674;23.284;2023-04-06T05:41:27;22.60;;;11.85;;
30818;SDS011;17546;42.674;23.284;2023-04-06T05:43:53;26.17;;;12.05;;
30818;SDS011;17546;42.674;23.284;2023-04-06T05:46:18;24.05;;;10.80;;
30818;SDS011;17546;42.674;23.284;2023-04-06T05:48:44;18.38;;;10.95;;
30818;SDS011;17546;42.674;23.284;2023-04-06T05:51:10;24.75;;;12.45;;
30818;SDS011;17546;42.674;23.284;2023-04-06T05:53:36;27.50;;;11.65;;
30818;SDS011;17546;42.674;23.284;2023-04-06T05:56:02;20.65;;;11.32;;
30818;SDS011;17546;42.674;23.284;2023-04-06T05:58:28;21.10;;;10.68;;
30818;SDS011;17546;42.674;23.284;2023-04-06T06:01:01;22.38;;;11.98;;
30818;SDS011;17546;42.674;23.284;2023-04-06T06:03:27;23.38;;;11.52;;
30818;SDS011;17546;42.674;23.284;2023-04-06T06:05:53;25.48;;;11.80;;
30818;SDS011;17546;42.674;23.284;2023-04-06T06:08:19;28.20;;;11.82;;
30818;SDS011;17546;42.674;23.284;2023-04-06T06:10:44;24.90;;;12.40;;
30818;SDS011;17546;42.674;23.284;2023-04-06T06:13:10;28.70;;;13.70;;
30818;SDS011;17546;42.674;23.284;2023-04-06T06:15:35;25.73;;;13.32;;
30818;SDS011;17546;42.674;23.284;2023-04-06T06:18:01;22.95;;;11.40;;
30818;SDS011;17546;42.674;23.284;2023-04-06T06:20:26;20.60;;;11.63;;
30818;SDS011;17546;42.674;23.284;2023-04-06T06:22:53;30.73;;;12.95;;
30818;SDS011;17546;42.674;23.284;2023-04-06T06:25:19;26.83;;;11.85;;
30818;SDS011;17546;42.674;23.284;2023-04-06T06:27:44;25.02;;;13.13;;
30818;SDS011;17546;42.674;23.284;2023-04-06T06:30:10;25.65;;;11.88;;
30818;SDS011;17546;42.674;23.284;2023-04-06T06:32:36;23.45;;;12.15;;
30818;SDS011;17546;42.674;23.284;2023-04-06T06:35:02;19.63;;;11.15;;
30818;SDS011;17546;42.674;23.284;2023-04-06T06:37:27;20.23;;;10.52;;
30818;SDS011;17546;42.674;23.284;2023-04-06T06:39:53;17.15;;;10.38;;
30818;SDS011;17546;42.674;23.284;2023-04-06T06:42:18;24.27;;;11.13;;
30818;SDS011;17546;42.674;23.284;2023-04-06T06:44:44;21.83;;;10.52;;
30818;SDS011;17546;42.674;23.284;2023-04-06T06:47:10;17.48;;;10.35;;
30818;SDS011;17546;42.674;23.284;2023-04-06T06:49:36;24.65;;;10.05;;
30818;SDS011;17546;42.674;23.284;2023-04-06T06:52:01;19.95;;;11.70;;
30818;SDS011;17546;42.674;23.284;2023-04-06T06:54:28;18.92;;;11.00;;
30818;SDS011;17546;42.674;23.284;2023-04-06T06:56:53;22.90;;;11.05;;
30818;SDS011;17546;42.674;23.284;2023-04-06T06:59:19;25.33;;;13.13;;
30818;SDS011;17546;42.674;23.284;2023-04-06T07:01:45;21.50;;;11.93;;
30818;SDS011;17546;42.674;23.284;2023-04-06T07:04:12;23.80;;;12.52;;
30818;SDS011;17546;42.674;23.284;2023-04-06T07:06:37;21.63;;;11.20;;
30818;SDS011;17546;42.674;23.284;2023-04-06T07:09:03;23.02;;;12.23;;
30818;SDS011;17546;42.674;23.284;2023-04-06T07:11:29;29.77;;;12.27;;
30818;SDS011;17546;42.674;23.284;2023-04-06T07:13:55;19.58;;;10.75;;
30818;SDS011;17546;42.674;23.284;2023-04-06T07:16:21;18.67;;;9.95;;
30818;SDS011;17546;42.674;23.284;2023-04-06T07:18:47;18.13;;;10.23;;
30818;SDS011;17546;42.674;23.284;2023-04-06T07:21:12;17.45;;;9.43;;
30818;SDS011;17546;42.674;23.284;2023-04-06T07:23:38;22.05;;;10.98;;
30818;SDS011;17546;42.674;23.284;2023-04-06T07:26:03;18.75;;;10.90;;
30818;SDS011;17546;42.674;23.284;2023-04-06T07:28:29;19.38;;;11.02;;
30818;SDS011;17546;42.674;23.284;2023-04-06T07:30:55;18.90;;;10.32;;
30818;SDS011;17546;42.674;23.284;2023-04-06T07:33:20;17.83;;;10.02;;
30818;SDS011;17546;42.674;23.284;2023-04-06T07:35:46;19.90;;;10.90;;
30818;SDS011;17546;42.674;23.284;2023-04-06T07:38:11;19.92;;;10.82;;
30818;SDS011;17546;42.674;23.284;2023-04-06T07:40:37;21.52;;;11.85;;
30818;SDS011;17546;42.674;23.284;2023-04-06T07:43:02;22.52;;;11.55;;
30818;SDS011;17546;42.674;23.284;2023-04-06T07:45:28;24.65;;;11.93;;
30818;SDS011;17546;42.674;23.284;2023-04-06T07:47:54;23.75;;;12.45;;
30818;SDS011;17546;42.674;23.284;2023-04-06T07:50:19;22.95;;;11.65;;
30818;SDS011;17546;42.674;23.284;2023-04-06T07:52:45;21.73;;;11.48;;
30818;SDS011;17546;42.674;23.284;2023-04-06T07:55:11;24.13;;;13.70;;
30818;SDS011;17546;42.674;23.284;2023-04-06T07:57:36;20.77;;;12.77;;
30818;SDS011;17546;42.674;23.284;2023-04-06T08:00:02;27.40;;;12.50;;
30818;SDS011;17546;42.674;23.284;2023-04-06T08:02:29;24.48;;;11.82;;
30818;SDS011;17546;42.674;23.284;2023-04-06T08:04:56;21.05;;;12.77;;
30818;SDS011;17546;42.674;23.284;2023-04-06T08:07:21;23.85;;;12.25;;
30818;SDS011;17546;42.674;23.284;2023-04-06T08:09:47;24.90;;;12.40;;
30818;SDS011;17546;42.674;23.284;2023-04-06T08:12:12;19.50;;;10.15;;
30818;SDS011;17546;42.674;23.284;2023-04-06T08:14:37;21.83;;;11.73;;
30818;SDS011;17546;42.674;23.284;2023-04-06T08:17:03;25.00;;;12.93;;
30818;SDS011;17546;42.674;23.284;2023-04-06T08:19:28;22.00;;;12.52;;
30818;SDS011;17546;42.674;23.284;2023-04-06T08:21:54;19.27;;;11.65;;
30818;SDS011;17546;42.674;23.284;2023-04-06T08:24:19;20.23;;;11.00;;
30818;SDS011;17546;42.674;23.284;2023-04-06T08:26:45;19.50;;;11.20;;
30818;SDS011;17546;42.674;23.284;2023-04-06T08:29:10;19.02;;;11.35;;
30818;SDS011;17546;42.674;23.284;2023-04-06T08:31:36;22.88;;;11.63;;
30818;SDS011;17546;42.674;23.284;2023-04-06T08:34:03;17.48;;;10.30;;
30818;SDS011;17546;42.674;23.284;2023-04-06T08:36:29;15.55;;;9.10;;
30818;SDS011;17546;42.674;23.284;2023-04-06T08:38:56;25.55;;;10.38;;
30818;SDS011;17546;42.674;23.284;2023-04-06T08:41:30;17.80;;;9.30;;
30818;SDS011;17546;42.674;23.284;2023-04-06T08:44:00;18.05;;;9.10;;
30818;SDS011;17546;42.674;23.284;2023-04-06T08:46:26;21.02;;;9.15;;
30818;SDS011;17546;42.674;23.284;2023-04-06T08:49:01;15.98;;;8.73;;
30818;SDS011;17546;42.674;23.284;2023-04-06T08:51:28;16.42;;;9.18;;
30818;SDS011;17546;42.674;23.284;2023-04-06T08:53:56;16.98;;;9.50;;
30818;SDS011;17546;42.674;23.284;2023-04-06T08:56:24;15.57;;;8.63;;
30818;SDS011;17546;42.674;23.284;2023-04-06T08:58:50;17.88;;;10.15;;
30818;SDS011;17546;42.674;23.284;2023-04-06T09:01:18;22.38;;;10.50;;
30818;SDS011;17546;42.674;23.284;2023-04-06T09:03:46;20.65;;;10.10;;
30818;SDS011;17546;42.674;23.284;2023-04-06T09:06:14;18.25;;;10.70;;
30818;SDS011;17546;42.674;23.284;2023-04-06T09:08:41;17.08;;;8.40;;
30818;SDS011;17546;42.674;23.284;2023-04-06T09:11:06;18.10;;;10.32;;
30818;SDS011;17546;42.674;23.284;2023-04-06T09:13:52;20.25;;;10.15;;
30818;SDS011;17546;42.674;23.284;2023-04-06T09:16:19;20.02;;;9.40;;
30818;SDS011;17546;42.674;23.284;2023-04-06T09:18:45;22.08;;;10.80;;
30818;SDS011;17546;42.674;23.284;2023-04-06T09:21:11;18.27;;;10.40;;
30818;SDS011;17546;42.674;23.284;2023-04-06T09:23:37;20.33;;;11.02;;
30818;SDS011;17546;42.674;23.284;2023-04-06T09:26:13;19.58;;;11.15;;
30818;SDS011;17546;42.674;23.284;2023-04-06T09:31:15;14.50;;;9.00;;
30818;SDS011;17546;42.674;23.284;2023-04-06T09:33:46;16.17;;;9.30;;
30818;SDS011;17546;42.674;23.284;2023-04-06T09:36:11;16.33;;;9.75;;
30818;SDS011;17546;42.674;23.284;2023-04-06T09:38:39;18.52;;;10.27;;
30818;SDS011;17546;42.674;23.284;2023-04-06T09:41:22;15.93;;;9.52;;
30818;SDS011;17546;42.674;23.284;2023-04-06T09:43:49;16.25;;;9.43;;
30818;SDS011;17546;42.674;23.284;2023-04-06T09:46:15;17.17;;;9.07;;
30818;SDS011;17546;42.674;23.284;2023-04-06T09:48:43;18.75;;;9.60;;
30818;SDS011;17546;42.674;23.284;2023-04-06T09:51:09;16.23;;;9.40;;
30818;SDS011;17546;42.674;23.284;2023-04-06T09:53:39;16.05;;;9.07;;
30818;SDS011;17546;42.674;23.284;2023-04-06T09:56:12;20.08;;;9.38;;
30818;SDS011;17546;42.674;23.284;2023-04-06T09:58:43;18.92;;;9.45;;
30818;SDS011;17546;42.674;23.284;2023-04-06T10:01:14;18.52;;;9.30;;
30818;SDS011;17546;42.674;23.284;2023-04-06T10:04:46;15.45;;;8.25;;
30818;SDS011;17546;42.674;23.284;2023-04-06T10:06:50;12.82;;;7.47;;
30818;SDS011;17546;42.674;23.284;2023-04-06T10:09:17;12.93;;;8.10;;
30818;SDS011;17546;42.674;23.284;2023-04-06T10:11:47;15.73;;;9.07;;
30818;SDS011;17546;42.674;23.284;2023-04-06T10:14:14;14.48;;;8.80;;
30818;SDS011;17546;42.674;23.284;2023-04-06T10:16:40;13.52;;;8.43;;
30818;SDS011;17546;42.674;23.284;2023-04-06T10:19:13;14.15;;;8.63;;
30818;SDS011;17546;42.674;23.284;2023-04-06T10:21:43;20.35;;;9.85;;
30818;SDS011;17546;42.674;23.284;2023-04-06T10:24:13;22.08;;;10.10;;
30818;SDS011;17546;42.674;23.284;2023-04-06T10:26:39;18.10;;;9.57;;
30818;SDS011;17546;42.674;23.284;2023-04-06T10:29:05;21.13;;;9.50;;
30818;SDS011;17546;42.674;23.284;2023-04-06T10:31:31;18.67;;;10.00;;
30818;SDS011;17546;42.674;23.284;2023-04-06T10:33:57;20.30;;;10.60;;
30818;SDS011;17546;42.674;23.284;2023-04-06T10:36:25;21.25;;;10.55;;
30818;SDS011;17546;42.674;23.284;2023-04-06T10:38:56;20.77;;;10.60;;
30818;SDS011;17546;42.674;23.284;2023-04-06T10:41:24;19.90;;;11.05;;
30818;SDS011;17546;42.674;23.284;2023-04-06T10:43:56;17.17;;;9.32;;
30818;SDS011;17546;42.674;23.284;2023-04-06T10:46:25;15.80;;;8.95;;
30818;SDS011;17546;42.674;23.284;2023-04-06T10:48:55;18.45;;;10.43;;
30818;SDS011;17546;42.674;23.284;2023-04-06T10:51:25;17.67;;;10.68;;
30818;SDS011;17546;42.674;23.284;2023-04-06T10:53:52;21.25;;;9.43;;
30818;SDS011;17546;42.674;23.284;2023-04-06T10:56:21;18.15;;;9.93;;
30818;SDS011;17546;42.674;23.284;2023-04-06T10:58:48;16.70;;;9.43;;
30818;SDS011;17546;42.674;23.284;2023-04-06T11:01:19;20.58;;;10.55;;
30818;SDS011;17546;42.674;23.284;2023-04-06T11:03:46;19.55;;;11.40;;
30818;SDS011;17546;42.674;23.284;2023-04-06T11:06:18;17.33;;;9.65;;
30818;SDS011;17546;42.674;23.284;2023-04-06T11:08:45;20.83;;;10.02;;
30818;SDS011;17546;42.674;23.284;2023-04-06T11:11:12;17.65;;;9.15;;
30818;SDS011;17546;42.674;23.284;2023-04-06T11:16:12;19.00;;;9.02;;
30818;SDS011;17546;42.674;23.284;2023-04-06T11:18:48;16.63;;;8.50;;
30818;SDS011;17546;42.674;23.284;2023-04-06T11:24:20;15.48;;;8.75;;
30818;SDS011;17546;42.674;23.284;2023-04-06T11:26:50;18.50;;;8.93;;
30818;SDS011;17546;42.674;23.284;2023-04-06T11:29:21;14.23;;;8.55;;
30818;SDS011;17546;42.674;23.284;2023-04-06T11:32:01;14.90;;;9.80;;
30818;SDS011;17546;42.674;23.284;2023-04-06T11:34:28;17.15;;;8.93;;
30818;SDS011;17546;42.674;23.284;2023-04-06T11:36:56;25.10;;;8.52;;
30818;SDS011;17546;42.674;23.284;2023-04-06T11:39:24;16.15;;;8.98;;
30818;SDS011;17546;42.674;23.284;2023-04-06T11:41:52;15.57;;;9.18;;
30818;SDS011;17546;42.674;23.284;2023-04-06T11:44:31;12.13;;;8.00;;
30818;SDS011;17546;42.674;23.284;2023-04-06T11:46:59;15.85;;;8.70;;
30818;SDS011;17546;42.674;23.284;2023-04-06T11:49:32;16.30;;;8.88;;
30818;SDS011;17546;42.674;23.284;2023-04-06T11:52:01;18.40;;;9.57;;
30818;SDS011;17546;42.674;23.284;2023-04-06T11:54:33;19.63;;;9.80;;
30818;SDS011;17546;42.674;23.284;2023-04-06T11:57:00;17.33;;;9.80;;
30818;SDS011;17546;42.674;23.284;2023-04-06T11:59:27;18.60;;;9.77;;
30818;SDS011;17546;42.674;23.284;2023-04-06T12:01:53;12.75;;;8.57;;
30818;SDS011;17546;42.674;23.284;2023-04-06T12:04:19;19.42;;;8.70;;
30818;SDS011;17546;42.674;23.284;2023-04-06T12:06:45;13.38;;;8.07;;
30818;SDS011;17546;42.674;23.284;2023-04-06T12:09:10;13.30;;;7.95;;
30818;SDS011;17546;42.674;23.284;2023-04-06T12:11:36;12.27;;;7.60;;
30818;SDS011;17546;42.674;23.284;2023-04-06T12:14:01;18.08;;;8.77;;
30818;SDS011;17546;42.674;23.284;2023-04-06T12:16:29;14.73;;;9.05;;
30818;SDS011;17546;42.674;23.284;2023-04-06T12:18:55;15.25;;;8.77;;
30818;SDS011;17546;42.674;23.284;2023-04-06T12:21:21;22.33;;;9.93;;
30818;SDS011;17546;42.674;23.284;2023-04-06T12:23:46;20.77;;;9.77;;
30818;SDS011;17546;42.674;23.284;2023-04-06T12:26:12;19.25;;;10.15;;
30818;SDS011;17546;42.674;23.284;2023-04-06T12:28:37;16.40;;;9.32;;
30818;SDS011;17546;42.674;23.284;2023-04-06T12:31:03;16.58;;;7.90;;
30818;SDS011;17546;42.674;23.284;2023-04-06T12:33:28;16.85;;;8.77;;
30818;SDS011;17546;42.674;23.284;2023-04-06T12:35:54;14.48;;;8.40;;
30818;SDS011;17546;42.674;23.284;2023-04-06T12:38:19;16.65;;;8.65;;
30818;SDS011;17546;42.674;23.284;2023-04-06T12:40:45;18.55;;;9.32;;
30818;SDS011;17546;42.674;23.284;2023-04-06T12:43:10;16.73;;;9.15;;
30818;SDS011;17546;42.674;23.284;2023-04-06T12:45:38;11.45;;;7.93;;
30818;SDS011;17546;42.674;23.284;2023-04-06T12:48:04;15.55;;;7.93;;
30818;SDS011;17546;42.674;23.284;2023-04-06T12:50:30;14.20;;;6.63;;
30818;SDS011;17546;42.674;23.284;2023-04-06T12:52:55;13.93;;;8.32;;
30818;SDS011;17546;42.674;23.284;2023-04-06T12:55:21;19.15;;;7.60;;
30818;SDS011;17546;42.674;23.284;2023-04-06T12:57:46;16.35;;;8.98;;
30818;SDS011;17546;42.674;23.284;2023-04-06T13:00:14;14.15;;;8.30;;
30818;SDS011;17546;42.674;23.284;2023-04-06T13:02:40;20.38;;;9.80;;
30818;SDS011;17546;42.674;23.284;2023-04-06T13:05:11;19.80;;;9.55;;
30818;SDS011;17546;42.674;23.284;2023-04-06T13:07:37;19.02;;;8.88;;
30818;SDS011;17546;42.674;23.284;2023-04-06T13:10:02;16.70;;;7.65;;
30818;SDS011;17546;42.674;23.284;2023-04-06T13:12:28;13.98;;;7.30;;
30818;SDS011;17546;42.674;23.284;2023-04-06T13:14:53;12.65;;;7.57;;
30818;SDS011;17546;42.674;23.284;2023-04-06T13:17:19;17.20;;;8.20;;
30818;SDS011;17546;42.674;23.284;2023-04-06T13:19:46;18.52;;;8.20;;
30818;SDS011;17546;42.674;23.284;2023-04-06T13:22:11;14.40;;;8.65;;
30818;SDS011;17546;42.674;23.284;2023-04-06T13:24:36;18.88;;;8.80;;
30818;SDS011;17546;42.674;23.284;2023-04-06T13:27:02;15.85;;;8.52;;
30818;SDS011;17546;42.674;23.284;2023-04-06T13:29:28;21.83;;;9.07;;
30818;SDS011;17546;42.674;23.284;2023-04-06T13:31:56;21.75;;;9.30;;
30818;SDS011;17546;42.674;23.284;2023-04-06T13:34:21;16.90;;;8.85;;
30818;SDS011;17546;42.674;23.284;2023-04-06T13:36:47;15.15;;;8.73;;
30818;SDS011;17546;42.674;23.284;2023-04-06T13:39:12;19.33;;;7.78;;
30818;SDS011;17546;42.674;23.284;2023-04-06T13:41:38;13.73;;;7.40;;
30818;SDS011;17546;42.674;23.284;2023-04-06T13:44:05;12.25;;;7.90;;
30818;SDS011;17546;42.674;23.284;2023-04-06T13:46:30;14.07;;;8.27;;
30818;SDS011;17546;42.674;23.284;2023-04-06T13:48:56;20.13;;;8.05;;
30818;SDS011;17546;42.674;23.284;2023-04-06T13:51:21;13.38;;;8.30;;
30818;SDS011;17546;42.674;23.284;2023-04-06T13:53:47;13.88;;;7.85;;
30818;SDS011;17546;42.674;23.284;2023-04-06T13:56:15;16.42;;;7.78;;
30818;SDS011;17546;42.674;23.284;2023-04-06T13:58:40;17.33;;;8.40;;
30818;SDS011;17546;42.674;23.284;2023-04-06T14:01:06;18.02;;;9.55;;
30818;SDS011;17546;42.674;23.284;2023-04-06T14:03:34;16.77;;;9.65;;
30818;SDS011;17546;42.674;23.284;2023-04-06T14:06:00;18.13;;;9.05;;
30818;SDS011;17546;42.674;23.284;2023-04-06T14:08:25;21.20;;;8.43;;
30818;SDS011;17546;42.674;23.284;2023-04-06T14:10:50;19.75;;;7.65;;
30818;SDS011;17546;42.674;23.284;2023-04-06T14:13:16;15.18;;;8.32;;
30818;SDS011;17546;42.674;23.284;2023-04-06T14:15:42;16.45;;;8.15;;
30818;SDS011;17546;42.674;23.284;2023-04-06T14:18:07;16.73;;;8.68;;
30818;SDS011;17546;42.674;23.284;2023-04-06T14:20:34;19.80;;;7.45;;
30818;SDS011;17546;42.674;23.284;2023-04-06T14:23:02;15.95;;;7.57;;